sensor_id;sensor_type;location;lat;lon;timestamp;P1;durP1;ratioP1;P2;durP2;ratioP2
36551;SDS011;22559;54.176;12.102;2022-11-20T00:01:30;1.70;;;1.60;;
36551;SDS011;22559;54.176;12.102;2022-11-20T00:03:56;1.37;;;1.30;;
36551;SDS011;22559;54.176;12.102;2022-11-20T00:06:23;1.77;;;1.50;;
36551;SDS011;22559;54.176;12.102;2022-11-20T00:08:49;1.50;;;1.50;;
36551;SDS011;22559;54.176;12.102;2022-11-20T00:11:16;1.43;;;1.43;;
36551;SDS011;22559;54.176;12.102;2022-11-20T00:13:44;2.13;;;1.63;;
36551;SDS011;22559;54.176;12.102;2022-11-20T00:16:12;1.53;;;1.50;;
36551;SDS011;22559;54.176;12.102;2022-11-20T00:18:39;2.80;;;1.80;;
36551;SDS011;22559;54.176;12.102;2022-11-20T00:21:05;1.57;;;1.47;;
36551;SDS011;22559;54.176;12.102;2022-11-20T00:23:35;1.50;;;1.50;;
36551;SDS011;22559;54.176;12.102;2022-11-20T00:26:04;1.50;;;1.40;;
36551;SDS011;22559;54.176;12.102;2022-11-20T00:28:31;1.50;;;1.43;;
36551;SDS011;22559;54.176;12.102;2022-11-20T00:31:00;4.23;;;1.50;;
36551;SDS011;22559;54.176;12.102;2022-11-20T00:33:30;1.30;;;1.30;;
36551;SDS011;22559;54.176;12.102;2022-11-20T00:36:00;1.50;;;1.50;;
36551;SDS011;22559;54.176;12.102;2022-11-20T00:38:30;1.60;;;1.50;;
36551;SDS011;22559;54.176;12.102;2022-11-20T00:41:01;1.50;;;1.40;;
36551;SDS011;22559;54.176;12.102;2022-11-20T00:43:28;1.40;;;1.40;;
36551;SDS011;22559;54.176;12.102;2022-11-20T00:45:57;1.30;;;1.30;;
36551;SDS011;22559;54.176;12.102;2022-11-20T00:48:27;1.50;;;1.50;;
36551;SDS011;22559;54.176;12.102;2022-11-20T00:50:53;1.27;;;1.23;;
36551;SDS011;22559;54.176;12.102;2022-11-20T00:53:19;1.60;;;1.50;;
36551;SDS011;22559;54.176;12.102;2022-11-20T00:58:21;1.33;;;1.30;;
36551;SDS011;22559;54.176;12.102;2022-11-20T01:00:47;1.50;;;1.50;;
36551;SDS011;22559;54.176;12.102;2022-11-20T01:03:14;1.60;;;1.50;;
36551;SDS011;22559;54.176;12.102;2022-11-20T01:05:41;1.77;;;1.67;;
36551;SDS011;22559;54.176;12.102;2022-11-20T01:08:07;1.40;;;1.40;;
36551;SDS011;22559;54.176;12.102;2022-11-20T01:10:33;1.20;;;1.20;;
36551;SDS011;22559;54.176;12.102;2022-11-20T01:12:58;1.57;;;1.53;;
36551;SDS011;22559;54.176;12.102;2022-11-20T01:15:42;1.30;;;1.30;;
36551;SDS011;22559;54.176;12.102;2022-11-20T01:18:08;1.60;;;1.50;;
36551;SDS011;22559;54.176;12.102;2022-11-20T01:20:34;1.47;;;1.47;;
36551;SDS011;22559;54.176;12.102;2022-11-20T01:23:01;2.57;;;1.53;;
36551;SDS011;22559;54.176;12.102;2022-11-20T01:25:27;1.40;;;1.40;;
36551;SDS011;22559;54.176;12.102;2022-11-20T01:27:53;1.77;;;1.67;;
36551;SDS011;22559;54.176;12.102;2022-11-20T01:30:19;1.87;;;1.50;;
36551;SDS011;22559;54.176;12.102;2022-11-20T01:32:44;1.83;;;1.73;;
36551;SDS011;22559;54.176;12.102;2022-11-20T01:35:10;1.80;;;1.70;;
36551;SDS011;22559;54.176;12.102;2022-11-20T01:37:35;1.30;;;1.30;;
36551;SDS011;22559;54.176;12.102;2022-11-20T01:40:01;1.60;;;1.50;;
36551;SDS011;22559;54.176;12.102;2022-11-20T01:42:27;1.50;;;1.40;;
36551;SDS011;22559;54.176;12.102;2022-11-20T01:48:11;1.43;;;1.33;;
36551;SDS011;22559;54.176;12.102;2022-11-20T01:50:38;2.07;;;1.43;;
36551;SDS011;22559;54.176;12.102;2022-11-20T01:53:05;1.40;;;1.40;;
36551;SDS011;22559;54.176;12.102;2022-11-20T01:55:36;1.60;;;1.50;;
36551;SDS011;22559;54.176;12.102;2022-11-20T01:58:08;1.57;;;1.50;;
36551;SDS011;22559;54.176;12.102;2022-11-20T02:00:34;1.80;;;1.50;;
36551;SDS011;22559;54.176;12.102;2022-11-20T02:03:01;1.60;;;1.50;;
36551;SDS011;22559;54.176;12.102;2022-11-20T02:05:35;1.50;;;1.40;;
36551;SDS011;22559;54.176;12.102;2022-11-20T02:08:04;1.67;;;1.57;;
36551;SDS011;22559;54.176;12.102;2022-11-20T02:10:31;1.43;;;1.43;;
36551;SDS011;22559;54.176;12.102;2022-11-20T02:12:57;1.40;;;1.40;;
36551;SDS011;22559;54.176;12.102;2022-11-20T02:15:41;1.70;;;1.60;;
36551;SDS011;22559;54.176;12.102;2022-11-20T02:18:08;1.60;;;1.50;;
36551;SDS011;22559;54.176;12.102;2022-11-20T02:20:35;1.53;;;1.53;;
36551;SDS011;22559;54.176;12.102;2022-11-20T02:23:05;1.67;;;1.57;;
36551;SDS011;22559;54.176;12.102;2022-11-20T02:25:37;1.33;;;1.33;;
36551;SDS011;22559;54.176;12.102;2022-11-20T02:28:03;1.37;;;1.37;;
36551;SDS011;22559;54.176;12.102;2022-11-20T02:30:29;1.50;;;1.50;;
36551;SDS011;22559;54.176;12.102;2022-11-20T02:32:55;1.30;;;1.30;;
36551;SDS011;22559;54.176;12.102;2022-11-20T02:37:48;2.40;;;1.40;;
36551;SDS011;22559;54.176;12.102;2022-11-20T02:40:17;1.30;;;1.30;;
36551;SDS011;22559;54.176;12.102;2022-11-20T02:42:43;1.23;;;1.23;;
36551;SDS011;22559;54.176;12.102;2022-11-20T02:45:09;1.40;;;1.40;;
36551;SDS011;22559;54.176;12.102;2022-11-20T02:47:35;1.40;;;1.40;;
36551;SDS011;22559;54.176;12.102;2022-11-20T02:50:01;1.30;;;1.30;;
36551;SDS011;22559;54.176;12.102;2022-11-20T02:52:27;1.50;;;1.50;;
36551;SDS011;22559;54.176;12.102;2022-11-20T02:54:53;1.40;;;1.40;;
36551;SDS011;22559;54.176;12.102;2022-11-20T02:57:19;1.43;;;1.37;;
36551;SDS011;22559;54.176;12.102;2022-11-20T02:59:44;2.30;;;1.40;;
36551;SDS011;22559;54.176;12.102;2022-11-20T03:02:10;1.70;;;1.40;;
36551;SDS011;22559;54.176;12.102;2022-11-20T03:04:36;1.63;;;1.63;;
36551;SDS011;22559;54.176;12.102;2022-11-20T03:07:01;1.60;;;1.50;;
36551;SDS011;22559;54.176;12.102;2022-11-20T03:09:27;1.60;;;1.50;;
36551;SDS011;22559;54.176;12.102;2022-11-20T03:11:53;1.60;;;1.57;;
36551;SDS011;22559;54.176;12.102;2022-11-20T03:14:19;1.27;;;1.27;;
36551;SDS011;22559;54.176;12.102;2022-11-20T03:16:44;1.30;;;1.30;;
36551;SDS011;22559;54.176;12.102;2022-11-20T03:19:11;1.30;;;1.30;;
36551;SDS011;22559;54.176;12.102;2022-11-20T03:21:37;1.30;;;1.30;;
36551;SDS011;22559;54.176;12.102;2022-11-20T03:24:02;1.27;;;1.27;;
36551;SDS011;22559;54.176;12.102;2022-11-20T03:26:28;1.23;;;1.23;;
36551;SDS011;22559;54.176;12.102;2022-11-20T03:28:55;1.30;;;1.30;;
36551;SDS011;22559;54.176;12.102;2022-11-20T03:31:27;1.63;;;1.40;;
36551;SDS011;22559;54.176;12.102;2022-11-20T03:33:55;1.20;;;1.20;;
36551;SDS011;22559;54.176;12.102;2022-11-20T03:36:21;1.40;;;1.30;;
36551;SDS011;22559;54.176;12.102;2022-11-20T03:38:48;1.30;;;1.30;;
36551;SDS011;22559;54.176;12.102;2022-11-20T03:41:16;1.37;;;1.37;;
36551;SDS011;22559;54.176;12.102;2022-11-20T03:43:47;1.50;;;1.50;;
36551;SDS011;22559;54.176;12.102;2022-11-20T03:46:17;1.40;;;1.40;;
36551;SDS011;22559;54.176;12.102;2022-11-20T03:48:43;1.40;;;1.30;;
36551;SDS011;22559;54.176;12.102;2022-11-20T03:51:13;1.60;;;1.50;;
36551;SDS011;22559;54.176;12.102;2022-11-20T03:53:43;1.30;;;1.30;;
36551;SDS011;22559;54.176;12.102;2022-11-20T03:56:11;1.30;;;1.30;;
36551;SDS011;22559;54.176;12.102;2022-11-20T03:58:39;1.40;;;1.37;;
36551;SDS011;22559;54.176;12.102;2022-11-20T04:01:10;1.60;;;1.50;;
36551;SDS011;22559;54.176;12.102;2022-11-20T04:03:38;1.60;;;1.60;;
36551;SDS011;22559;54.176;12.102;2022-11-20T04:06:09;1.23;;;1.23;;
36551;SDS011;22559;54.176;12.102;2022-11-20T04:08:45;1.40;;;1.30;;
36551;SDS011;22559;54.176;12.102;2022-11-20T04:13:40;1.30;;;1.30;;
36551;SDS011;22559;54.176;12.102;2022-11-20T04:16:07;1.20;;;1.20;;
36551;SDS011;22559;54.176;12.102;2022-11-20T04:18:33;1.30;;;1.30;;
36551;SDS011;22559;54.176;12.102;2022-11-20T04:20:59;1.43;;;1.40;;
36551;SDS011;22559;54.176;12.102;2022-11-20T04:23:25;1.53;;;1.47;;
36551;SDS011;22559;54.176;12.102;2022-11-20T04:25:51;1.30;;;1.20;;
36551;SDS011;22559;54.176;12.102;2022-11-20T04:28:17;1.20;;;1.20;;
36551;SDS011;22559;54.176;12.102;2022-11-20T04:30:43;1.27;;;1.27;;
36551;SDS011;22559;54.176;12.102;2022-11-20T04:33:08;1.20;;;1.20;;
36551;SDS011;22559;54.176;12.102;2022-11-20T04:35:34;1.20;;;1.20;;
36551;SDS011;22559;54.176;12.102;2022-11-20T04:38:01;1.40;;;1.40;;
36551;SDS011;22559;54.176;12.102;2022-11-20T04:40:30;1.90;;;1.30;;
36551;SDS011;22559;54.176;12.102;2022-11-20T04:42:55;1.30;;;1.30;;
36551;SDS011;22559;54.176;12.102;2022-11-20T04:45:22;1.33;;;1.30;;
36551;SDS011;22559;54.176;12.102;2022-11-20T04:47:48;1.53;;;1.40;;
36551;SDS011;22559;54.176;12.102;2022-11-20T04:50:14;1.30;;;1.30;;
36551;SDS011;22559;54.176;12.102;2022-11-20T04:52:40;1.40;;;1.30;;
36551;SDS011;22559;54.176;12.102;2022-11-20T04:55:06;1.30;;;1.30;;
36551;SDS011;22559;54.176;12.102;2022-11-20T04:57:32;1.30;;;1.27;;
36551;SDS011;22559;54.176;12.102;2022-11-20T04:59:57;1.43;;;1.30;;
36551;SDS011;22559;54.176;12.102;2022-11-20T05:02:23;1.37;;;1.30;;
36551;SDS011;22559;54.176;12.102;2022-11-20T05:04:48;1.60;;;1.50;;
36551;SDS011;22559;54.176;12.102;2022-11-20T05:07:14;1.50;;;1.40;;
36551;SDS011;22559;54.176;12.102;2022-11-20T05:09:40;1.60;;;1.50;;
36551;SDS011;22559;54.176;12.102;2022-11-20T05:12:07;1.40;;;1.40;;
36551;SDS011;22559;54.176;12.102;2022-11-20T05:14:33;1.80;;;1.40;;
36551;SDS011;22559;54.176;12.102;2022-11-20T05:16:59;1.40;;;1.40;;
36551;SDS011;22559;54.176;12.102;2022-11-20T05:19:25;1.50;;;1.43;;
36551;SDS011;22559;54.176;12.102;2022-11-20T05:21:50;1.60;;;1.50;;
36551;SDS011;22559;54.176;12.102;2022-11-20T05:24:16;1.60;;;1.50;;
36551;SDS011;22559;54.176;12.102;2022-11-20T05:26:42;1.80;;;1.70;;
36551;SDS011;22559;54.176;12.102;2022-11-20T05:29:09;1.47;;;1.47;;
36551;SDS011;22559;54.176;12.102;2022-11-20T05:31:36;1.33;;;1.30;;
36551;SDS011;22559;54.176;12.102;2022-11-20T05:34:03;1.43;;;1.43;;
36551;SDS011;22559;54.176;12.102;2022-11-20T05:36:29;1.40;;;1.40;;
36551;SDS011;22559;54.176;12.102;2022-11-20T05:38:55;1.27;;;1.27;;
36551;SDS011;22559;54.176;12.102;2022-11-20T05:41:21;1.43;;;1.43;;
36551;SDS011;22559;54.176;12.102;2022-11-20T05:43:47;1.50;;;1.50;;
36551;SDS011;22559;54.176;12.102;2022-11-20T05:46:14;1.27;;;1.27;;
36551;SDS011;22559;54.176;12.102;2022-11-20T05:48:41;2.70;;;1.50;;
36551;SDS011;22559;54.176;12.102;2022-11-20T05:51:09;1.40;;;1.40;;
36551;SDS011;22559;54.176;12.102;2022-11-20T05:53:36;1.60;;;1.50;;
36551;SDS011;22559;54.176;12.102;2022-11-20T05:56:03;1.40;;;1.40;;
36551;SDS011;22559;54.176;12.102;2022-11-20T05:58:31;1.50;;;1.50;;
36551;SDS011;22559;54.176;12.102;2022-11-20T06:03:34;1.57;;;1.50;;
36551;SDS011;22559;54.176;12.102;2022-11-20T06:06:00;1.30;;;1.30;;
36551;SDS011;22559;54.176;12.102;2022-11-20T06:08:26;1.47;;;1.47;;
36551;SDS011;22559;54.176;12.102;2022-11-20T06:10:52;1.30;;;1.30;;
36551;SDS011;22559;54.176;12.102;2022-11-20T06:13:17;1.30;;;1.30;;
36551;SDS011;22559;54.176;12.102;2022-11-20T06:15:48;1.50;;;1.50;;
36551;SDS011;22559;54.176;12.102;2022-11-20T06:18:17;1.20;;;1.20;;
36551;SDS011;22559;54.176;12.102;2022-11-20T06:20:43;1.20;;;1.20;;
36551;SDS011;22559;54.176;12.102;2022-11-20T06:23:08;1.20;;;1.20;;
36551;SDS011;22559;54.176;12.102;2022-11-20T06:28:01;1.60;;;1.50;;
36551;SDS011;22559;54.176;12.102;2022-11-20T06:30:27;1.57;;;1.30;;
36551;SDS011;22559;54.176;12.102;2022-11-20T06:32:52;1.33;;;1.33;;
36551;SDS011;22559;54.176;12.102;2022-11-20T06:35:18;1.37;;;1.37;;
36551;SDS011;22559;54.176;12.102;2022-11-20T06:37:44;1.50;;;1.50;;
36551;SDS011;22559;54.176;12.102;2022-11-20T06:40:09;1.60;;;1.50;;
36551;SDS011;22559;54.176;12.102;2022-11-20T06:42:35;1.77;;;1.50;;
36551;SDS011;22559;54.176;12.102;2022-11-20T06:45:01;1.40;;;1.40;;
36551;SDS011;22559;54.176;12.102;2022-11-20T06:47:27;1.20;;;1.20;;
36551;SDS011;22559;54.176;12.102;2022-11-20T06:49:52;1.37;;;1.37;;
36551;SDS011;22559;54.176;12.102;2022-11-20T06:52:18;1.40;;;1.40;;
36551;SDS011;22559;54.176;12.102;2022-11-20T06:54:44;1.47;;;1.20;;
36551;SDS011;22559;54.176;12.102;2022-11-20T06:57:09;2.43;;;2.33;;
36551;SDS011;22559;54.176;12.102;2022-11-20T06:59:35;2.83;;;2.63;;
36551;SDS011;22559;54.176;12.102;2022-11-20T07:02:01;2.70;;;2.50;;
36551;SDS011;22559;54.176;12.102;2022-11-20T07:04:27;3.20;;;2.90;;
36551;SDS011;22559;54.176;12.102;2022-11-20T07:06:52;2.90;;;2.70;;
36551;SDS011;22559;54.176;12.102;2022-11-20T07:09:18;2.97;;;2.73;;
36551;SDS011;22559;54.176;12.102;2022-11-20T07:11:43;2.80;;;2.60;;
36551;SDS011;22559;54.176;12.102;2022-11-20T07:14:09;3.13;;;2.83;;
36551;SDS011;22559;54.176;12.102;2022-11-20T07:16:35;2.90;;;2.67;;
36551;SDS011;22559;54.176;12.102;2022-11-20T07:19:01;2.73;;;2.53;;
36551;SDS011;22559;54.176;12.102;2022-11-20T07:21:26;3.13;;;2.93;;
36551;SDS011;22559;54.176;12.102;2022-11-20T07:23:52;3.43;;;3.17;;
36551;SDS011;22559;54.176;12.102;2022-11-20T07:26:17;3.50;;;3.30;;
36551;SDS011;22559;54.176;12.102;2022-11-20T07:28:44;3.33;;;3.10;;
36551;SDS011;22559;54.176;12.102;2022-11-20T07:31:10;3.13;;;2.83;;
36551;SDS011;22559;54.176;12.102;2022-11-20T07:33:37;3.20;;;2.90;;
36551;SDS011;22559;54.176;12.102;2022-11-20T07:36:03;4.67;;;2.87;;
36551;SDS011;22559;54.176;12.102;2022-11-20T07:38:29;3.20;;;3.00;;
36551;SDS011;22559;54.176;12.102;2022-11-20T07:40:56;3.77;;;3.47;;
36551;SDS011;22559;54.176;12.102;2022-11-20T07:43:22;4.80;;;3.60;;
36551;SDS011;22559;54.176;12.102;2022-11-20T07:45:49;3.47;;;3.20;;
36551;SDS011;22559;54.176;12.102;2022-11-20T07:48:14;4.43;;;3.80;;
36551;SDS011;22559;54.176;12.102;2022-11-20T07:50:40;4.23;;;3.63;;
36551;SDS011;22559;54.176;12.102;2022-11-20T07:53:05;4.57;;;4.00;;
36551;SDS011;22559;54.176;12.102;2022-11-20T07:55:32;4.17;;;3.73;;
36551;SDS011;22559;54.176;12.102;2022-11-20T07:57:58;5.87;;;3.80;;
36551;SDS011;22559;54.176;12.102;2022-11-20T08:00:24;4.53;;;3.80;;
36551;SDS011;22559;54.176;12.102;2022-11-20T08:02:51;4.47;;;3.90;;
36551;SDS011;22559;54.176;12.102;2022-11-20T08:05:16;4.40;;;4.00;;
36551;SDS011;22559;54.176;12.102;2022-11-20T08:07:42;4.37;;;3.90;;
36551;SDS011;22559;54.176;12.102;2022-11-20T08:10:09;4.07;;;3.70;;
36551;SDS011;22559;54.176;12.102;2022-11-20T08:12:47;4.27;;;3.60;;
36551;SDS011;22559;54.176;12.102;2022-11-20T08:15:32;5.03;;;4.13;;
36551;SDS011;22559;54.176;12.102;2022-11-20T08:17:59;4.20;;;3.80;;
36551;SDS011;22559;54.176;12.102;2022-11-20T08:20:29;4.20;;;3.80;;
36551;SDS011;22559;54.176;12.102;2022-11-20T08:22:59;3.83;;;3.53;;
36551;SDS011;22559;54.176;12.102;2022-11-20T08:25:31;4.50;;;3.97;;
36551;SDS011;22559;54.176;12.102;2022-11-20T08:27:58;4.17;;;3.77;;
36551;SDS011;22559;54.176;12.102;2022-11-20T08:30:28;5.00;;;3.60;;
36551;SDS011;22559;54.176;12.102;2022-11-20T08:32:54;3.90;;;3.50;;
36551;SDS011;22559;54.176;12.102;2022-11-20T08:35:25;4.00;;;3.47;;
36551;SDS011;22559;54.176;12.102;2022-11-20T08:37:51;4.47;;;3.70;;
36551;SDS011;22559;54.176;12.102;2022-11-20T08:40:17;3.60;;;3.30;;
36551;SDS011;22559;54.176;12.102;2022-11-20T08:42:46;3.40;;;3.10;;
36551;SDS011;22559;54.176;12.102;2022-11-20T08:45:15;3.80;;;3.50;;
36551;SDS011;22559;54.176;12.102;2022-11-20T08:47:42;3.57;;;3.27;;
36551;SDS011;22559;54.176;12.102;2022-11-20T08:50:09;3.20;;;2.90;;
36551;SDS011;22559;54.176;12.102;2022-11-20T08:52:35;3.27;;;2.97;;
36551;SDS011;22559;54.176;12.102;2022-11-20T08:55:01;3.60;;;3.30;;
36551;SDS011;22559;54.176;12.102;2022-11-20T08:57:27;2.80;;;2.60;;
36551;SDS011;22559;54.176;12.102;2022-11-20T08:59:52;2.57;;;2.40;;
36551;SDS011;22559;54.176;12.102;2022-11-20T09:02:18;3.70;;;3.40;;
36551;SDS011;22559;54.176;12.102;2022-11-20T09:04:43;3.23;;;2.83;;
36551;SDS011;22559;54.176;12.102;2022-11-20T09:07:09;3.57;;;3.27;;
36551;SDS011;22559;54.176;12.102;2022-11-20T09:09:35;3.30;;;3.03;;
36551;SDS011;22559;54.176;12.102;2022-11-20T09:12:00;3.60;;;3.30;;
36551;SDS011;22559;54.176;12.102;2022-11-20T09:14:26;4.63;;;3.90;;
36551;SDS011;22559;54.176;12.102;2022-11-20T09:16:54;4.57;;;4.10;;
36551;SDS011;22559;54.176;12.102;2022-11-20T09:19:21;4.40;;;4.00;;
36551;SDS011;22559;54.176;12.102;2022-11-20T09:21:46;3.80;;;3.50;;
36551;SDS011;22559;54.176;12.102;2022-11-20T09:24:12;3.63;;;3.33;;
36551;SDS011;22559;54.176;12.102;2022-11-20T09:26:37;5.27;;;4.13;;
36551;SDS011;22559;54.176;12.102;2022-11-20T09:29:03;4.67;;;4.20;;
36551;SDS011;22559;54.176;12.102;2022-11-20T09:31:29;4.30;;;3.80;;
36551;SDS011;22559;54.176;12.102;2022-11-20T09:33:54;4.07;;;3.67;;
36551;SDS011;22559;54.176;12.102;2022-11-20T09:36:20;4.23;;;3.40;;
36551;SDS011;22559;54.176;12.102;2022-11-20T09:38:46;4.03;;;3.67;;
36551;SDS011;22559;54.176;12.102;2022-11-20T09:41:55;4.47;;;3.97;;
36551;SDS011;22559;54.176;12.102;2022-11-20T09:51:53;4.47;;;4.07;;
36551;SDS011;22559;54.176;12.102;2022-11-20T09:54:22;4.83;;;4.43;;
36551;SDS011;22559;54.176;12.102;2022-11-20T09:56:58;5.67;;;5.17;;
36551;SDS011;22559;54.176;12.102;2022-11-20T09:59:34;5.63;;;4.70;;
36551;SDS011;22559;54.176;12.102;2022-11-20T10:05:06;5.37;;;4.87;;
36551;SDS011;22559;54.176;12.102;2022-11-20T10:10:16;4.33;;;3.93;;
36551;SDS011;22559;54.176;12.102;2022-11-20T10:13:06;4.40;;;4.00;;
36551;SDS011;22559;54.176;12.102;2022-11-20T10:18:37;4.80;;;4.27;;
36551;SDS011;22559;54.176;12.102;2022-11-20T10:26:35;5.10;;;4.60;;
36551;SDS011;22559;54.176;12.102;2022-11-20T10:29:21;7.07;;;4.93;;
36551;SDS011;22559;54.176;12.102;2022-11-20T10:32:00;4.77;;;4.30;;
36551;SDS011;22559;54.176;12.102;2022-11-20T10:37:27;4.40;;;4.00;;
36551;SDS011;22559;54.176;12.102;2022-11-20T10:42:34;3.63;;;3.43;;
36551;SDS011;22559;54.176;12.102;2022-11-20T10:47:53;3.53;;;3.33;;
36551;SDS011;22559;54.176;12.102;2022-11-20T10:50:24;3.83;;;3.17;;
36551;SDS011;22559;54.176;12.102;2022-11-20T10:56:07;4.07;;;3.77;;
36551;SDS011;22559;54.176;12.102;2022-11-20T10:58:52;3.60;;;3.30;;
36551;SDS011;22559;54.176;12.102;2022-11-20T11:01:20;3.50;;;3.30;;
36551;SDS011;22559;54.176;12.102;2022-11-20T11:03:51;3.20;;;3.00;;
36551;SDS011;22559;54.176;12.102;2022-11-20T11:06:36;3.10;;;2.90;;
36551;SDS011;22559;54.176;12.102;2022-11-20T11:09:10;3.10;;;2.90;;
36551;SDS011;22559;54.176;12.102;2022-11-20T11:11:41;3.67;;;3.37;;
36551;SDS011;22559;54.176;12.102;2022-11-20T11:14:07;3.13;;;2.93;;
36551;SDS011;22559;54.176;12.102;2022-11-20T11:16:51;3.53;;;3.30;;
36551;SDS011;22559;54.176;12.102;2022-11-20T11:19:21;3.83;;;3.53;;
36551;SDS011;22559;54.176;12.102;2022-11-20T11:21:56;3.77;;;3.47;;
36551;SDS011;22559;54.176;12.102;2022-11-20T11:24:24;3.50;;;3.20;;
36551;SDS011;22559;54.176;12.102;2022-11-20T11:26:52;3.43;;;3.20;;
36551;SDS011;22559;54.176;12.102;2022-11-20T11:29:21;3.27;;;2.97;;
36551;SDS011;22559;54.176;12.102;2022-11-20T11:31:47;3.73;;;3.43;;
36551;SDS011;22559;54.176;12.102;2022-11-20T11:36:39;3.03;;;2.83;;
36551;SDS011;22559;54.176;12.102;2022-11-20T11:39:08;3.10;;;2.90;;
36551;SDS011;22559;54.176;12.102;2022-11-20T11:41:39;4.20;;;3.80;;
36551;SDS011;22559;54.176;12.102;2022-11-20T11:44:21;3.80;;;3.40;;
36551;SDS011;22559;54.176;12.102;2022-11-20T11:55:24;3.40;;;3.20;;
36551;SDS011;22559;54.176;12.102;2022-11-20T11:58:02;3.00;;;2.80;;
36551;SDS011;22559;54.176;12.102;2022-11-20T12:01:00;3.00;;;2.80;;
36551;SDS011;22559;54.176;12.102;2022-11-20T12:03:39;3.00;;;2.80;;
36551;SDS011;22559;54.176;12.102;2022-11-20T12:06:16;3.00;;;2.80;;
36551;SDS011;22559;54.176;12.102;2022-11-20T12:11:40;3.30;;;3.10;;
36551;SDS011;22559;54.176;12.102;2022-11-20T12:16:44;3.00;;;2.80;;
36551;SDS011;22559;54.176;12.102;2022-11-20T12:19:11;3.00;;;2.80;;
36551;SDS011;22559;54.176;12.102;2022-11-20T12:27:03;3.17;;;2.97;;
36551;SDS011;22559;54.176;12.102;2022-11-20T12:37:39;2.90;;;2.70;;
36551;SDS011;22559;54.176;12.102;2022-11-20T12:43:48;3.10;;;2.90;;
36551;SDS011;22559;54.176;12.102;2022-11-20T12:47:11;12.33;;;6.63;;
36551;SDS011;22559;54.176;12.102;2022-11-20T12:50:20;6.60;;;4.33;;
36551;SDS011;22559;54.176;12.102;2022-11-20T12:55:36;3.67;;;3.37;;
36551;SDS011;22559;54.176;12.102;2022-11-20T12:58:12;4.87;;;3.60;;
36551;SDS011;22559;54.176;12.102;2022-11-20T13:00:54;3.80;;;3.50;;
36551;SDS011;22559;54.176;12.102;2022-11-20T13:03:29;4.00;;;3.60;;
36551;SDS011;22559;54.176;12.102;2022-11-20T13:06:11;3.53;;;3.30;;
36551;SDS011;22559;54.176;12.102;2022-11-20T13:09:00;4.33;;;3.93;;
36551;SDS011;22559;54.176;12.102;2022-11-20T13:11:37;4.07;;;3.70;;
36551;SDS011;22559;54.176;12.102;2022-11-20T13:14:31;4.03;;;3.73;;
36551;SDS011;22559;54.176;12.102;2022-11-20T13:19:50;4.10;;;3.70;;
36551;SDS011;22559;54.176;12.102;2022-11-20T13:22:25;4.10;;;3.80;;
36551;SDS011;22559;54.176;12.102;2022-11-20T13:25:08;4.27;;;3.87;;
36551;SDS011;22559;54.176;12.102;2022-11-20T13:27:35;4.47;;;3.90;;
36551;SDS011;22559;54.176;12.102;2022-11-20T13:30:15;6.07;;;4.67;;
36551;SDS011;22559;54.176;12.102;2022-11-20T13:32:50;7.37;;;5.47;;
36551;SDS011;22559;54.176;12.102;2022-11-20T13:35:31;4.97;;;4.47;;
36551;SDS011;22559;54.176;12.102;2022-11-20T13:37:59;6.20;;;4.47;;
36551;SDS011;22559;54.176;12.102;2022-11-20T13:40:26;4.37;;;3.97;;
36551;SDS011;22559;54.176;12.102;2022-11-20T13:45:27;4.90;;;4.50;;
36551;SDS011;22559;54.176;12.102;2022-11-20T13:47:55;4.97;;;4.20;;
36551;SDS011;22559;54.176;12.102;2022-11-20T13:50:27;4.93;;;4.43;;
36551;SDS011;22559;54.176;12.102;2022-11-20T14:01:32;5.13;;;4.50;;
36551;SDS011;22559;54.176;12.102;2022-11-20T14:03:59;5.83;;;4.97;;
36551;SDS011;22559;54.176;12.102;2022-11-20T14:06:34;6.43;;;4.63;;
36551;SDS011;22559;54.176;12.102;2022-11-20T14:09:24;5.37;;;4.87;;
36551;SDS011;22559;54.176;12.102;2022-11-20T14:11:55;5.37;;;4.87;;
36551;SDS011;22559;54.176;12.102;2022-11-20T14:14:25;5.50;;;5.00;;
36551;SDS011;22559;54.176;12.102;2022-11-20T14:16:52;5.20;;;4.80;;
36551;SDS011;22559;54.176;12.102;2022-11-20T14:19:32;7.30;;;5.47;;
36551;SDS011;22559;54.176;12.102;2022-11-20T14:22:09;4.90;;;4.40;;
36551;SDS011;22559;54.176;12.102;2022-11-20T14:24:46;5.90;;;4.50;;
36551;SDS011;22559;54.176;12.102;2022-11-20T14:27:18;6.03;;;4.70;;
36551;SDS011;22559;54.176;12.102;2022-11-20T14:29:46;7.93;;;4.43;;
36551;SDS011;22559;54.176;12.102;2022-11-20T14:32:17;5.40;;;4.90;;
36551;SDS011;22559;54.176;12.102;2022-11-20T14:34:44;5.07;;;4.53;;
36551;SDS011;22559;54.176;12.102;2022-11-20T14:37:17;5.63;;;4.90;;
36551;SDS011;22559;54.176;12.102;2022-11-20T14:39:50;5.10;;;4.60;;
36551;SDS011;22559;54.176;12.102;2022-11-20T14:42:19;5.50;;;4.80;;
36551;SDS011;22559;54.176;12.102;2022-11-20T14:44:47;5.10;;;4.60;;
36551;SDS011;22559;54.176;12.102;2022-11-20T14:47:16;5.50;;;4.73;;
36551;SDS011;22559;54.176;12.102;2022-11-20T14:49:46;6.30;;;5.30;;
36551;SDS011;22559;54.176;12.102;2022-11-20T14:52:14;5.60;;;5.07;;
36551;SDS011;22559;54.176;12.102;2022-11-20T14:54:46;6.40;;;5.33;;
36551;SDS011;22559;54.176;12.102;2022-11-20T14:57:53;5.67;;;5.03;;
36551;SDS011;22559;54.176;12.102;2022-11-20T15:02:44;6.57;;;5.87;;
36551;SDS011;22559;54.176;12.102;2022-11-20T15:05:11;6.40;;;5.80;;
36551;SDS011;22559;54.176;12.102;2022-11-20T15:07:45;6.43;;;5.53;;
36551;SDS011;22559;54.176;12.102;2022-11-20T15:10:29;6.77;;;5.57;;
36551;SDS011;22559;54.176;12.102;2022-11-20T15:12:58;6.87;;;6.17;;
36551;SDS011;22559;54.176;12.102;2022-11-20T15:15:35;10.63;;;7.40;;
36551;SDS011;22559;54.176;12.102;2022-11-20T15:18:00;8.93;;;7.30;;
36551;SDS011;22559;54.176;12.102;2022-11-20T15:20:31;9.73;;;7.80;;
36551;SDS011;22559;54.176;12.102;2022-11-20T15:22:58;10.83;;;7.23;;
36551;SDS011;22559;54.176;12.102;2022-11-20T15:25:23;11.53;;;8.43;;
36551;SDS011;22559;54.176;12.102;2022-11-20T15:27:51;12.20;;;9.00;;
36551;SDS011;22559;54.176;12.102;2022-11-20T15:30:20;19.27;;;12.93;;
36551;SDS011;22559;54.176;12.102;2022-11-20T15:32:46;10.87;;;7.83;;
36551;SDS011;22559;54.176;12.102;2022-11-20T15:35:13;9.53;;;7.30;;
36551;SDS011;22559;54.176;12.102;2022-11-20T15:37:40;10.23;;;7.20;;
36551;SDS011;22559;54.176;12.102;2022-11-20T15:40:06;10.20;;;6.70;;
36551;SDS011;22559;54.176;12.102;2022-11-20T15:42:33;8.97;;;6.67;;
36551;SDS011;22559;54.176;12.102;2022-11-20T15:44:58;8.80;;;6.33;;
36551;SDS011;22559;54.176;12.102;2022-11-20T15:47:25;8.33;;;6.10;;
36551;SDS011;22559;54.176;12.102;2022-11-20T15:49:56;6.27;;;5.63;;
36551;SDS011;22559;54.176;12.102;2022-11-20T15:52:21;7.47;;;6.13;;
36551;SDS011;22559;54.176;12.102;2022-11-20T15:54:47;27.03;;;13.87;;
36551;SDS011;22559;54.176;12.102;2022-11-20T15:57:13;12.13;;;8.10;;
36551;SDS011;22559;54.176;12.102;2022-11-20T15:59:39;10.57;;;7.30;;
36551;SDS011;22559;54.176;12.102;2022-11-20T16:02:10;9.47;;;6.67;;
36551;SDS011;22559;54.176;12.102;2022-11-20T16:04:37;7.10;;;5.70;;
36551;SDS011;22559;54.176;12.102;2022-11-20T16:07:03;6.93;;;5.57;;
36551;SDS011;22559;54.176;12.102;2022-11-20T16:09:28;7.20;;;6.00;;
36551;SDS011;22559;54.176;12.102;2022-11-20T16:11:54;6.13;;;5.20;;
36551;SDS011;22559;54.176;12.102;2022-11-20T16:14:20;8.00;;;5.63;;
36551;SDS011;22559;54.176;12.102;2022-11-20T16:17:04;8.23;;;6.30;;
36551;SDS011;22559;54.176;12.102;2022-11-20T16:19:30;10.53;;;8.27;;
36551;SDS011;22559;54.176;12.102;2022-11-20T16:21:57;9.60;;;7.07;;
36551;SDS011;22559;54.176;12.102;2022-11-20T16:24:23;11.10;;;7.60;;
36551;SDS011;22559;54.176;12.102;2022-11-20T16:26:48;7.83;;;6.80;;